Flight Track Log - Related Links

Times and Time Zones

All times are in EDT time to prevent confusion due to time zone crossing. See the N606FT flight status page for this flight to view local times or setup timezone preferences in your user account.

Time Position Orientation Groundspeed Altitude Reporting Facility
EDT Latitude Longitude Course Direction KTS MPH feet Rate Location/Type
Fri 02:25:00 PM 27.1502 -81.4898 31° Northeast  Level Estimated
Fri 02:26:00 PM 27.1872 -81.4652 31° Northeast  Level Estimated
Fri 02:27:00 PM 27.2241 -81.4405 31° Northeast  Level Estimated
Fri 02:28:00 PM 27.2611 -81.4158 31° Northeast  Level Estimated
Fri 02:29:00 PM 27.2980 -81.3911 31° Northeast  Level Estimated
Fri 02:29:51 PM 26.8472 -81.5942 31° Northeast 109 125 3,600  Level Miami Center
Fri 02:30:00 PM 27.3350 -81.3664 31° Northeast  Level Estimated
Fri 02:30:51 PM 26.8728 -81.5767 31° Northeast 104 120 3,600  Level Miami Center
Fri 02:31:00 PM 27.3719 -81.3417 31° Northeast  Level Estimated
Fri 02:31:51 PM 26.9022 -81.5686 14° North 104 120 3,600  Level Miami Center
Fri 02:32:00 PM 27.4088 -81.3169 31° Northeast  Level Estimated
Fri 02:32:51 PM 26.9258 -81.5533 30° Northeast 99 114 3,600  Level Miami Center
Fri 02:33:00 PM 27.4458 -81.2922 31° Northeast  Level Estimated
Fri 02:33:51 PM 26.9492 -81.5403 27° Northeast 101 116 3,500  Level Miami Center
Fri 02:34:00 PM 27.4827 -81.2674 31° Northeast  Level Estimated
Fri 02:34:51 PM 26.9686 -81.5222 40° Northeast 101 116 3,500  Level Miami Center
Fri 02:35:51 PM 26.9942 -81.5069 28° Northeast 96 110 3,500  Level Miami Center
Fri 02:36:51 PM 27.0194 -81.4942 24° Northeast 96 110 3,500  Level Miami Center
Fri 02:37:51 PM 27.0450 -81.4833 21° North 96 110 3,500 50 Level Miami Center
Fri 02:38:51 PM 27.0681 -81.4750 18° North 96 110 3,600 -50 Climbing Miami Center
Fri 02:39:51 PM 27.0972 -81.4761 358° North 91 105 3,400 -50 Descending Miami Center
Fri 02:40:51 PM 27.1111 -81.5000 303° West 86 99 3,500 150 Climbing Miami Center
Fri 02:41:51 PM 27.0886 -81.4897 158° South 23 26 3,700 150 Climbing Miami Center
Fri 02:42:51 PM 27.0683 -81.4703 140° Southeast 54 62 3,800 150 Climbing Miami Center
Fri 02:43:51 PM 27.0481 -81.4461 133° Southeast 85 98 4,000 100 Climbing Miami Center
Fri 02:44:51 PM 27.0533 -81.4139 80° East 85 98 4,000 50 Level Miami Center
Fri 02:45:51 PM 27.0564 -81.3836 84° East 95 109 4,100  Climbing Miami Center
Fri 02:46:51 PM 27.0556 -81.3464 91° East 102 117 4,000  Descending Miami Center
Fri 02:47:51 PM 27.0564 -81.3161 88° East 97 112 4,100  Climbing Miami Center
Fri 02:48:51 PM 27.0575 -81.2833 88° East 108 124 4,000 100 Descending Miami Center
Fri 02:49:51 PM 27.0644 -81.2603 71° East 95 109 4,300 -50 Climbing Miami Center
Fri 02:50:51 PM 27.0861 -81.2331 48° Northeast 87 100 3,900 -400 Descending Miami Center
Fri 02:51:51 PM 27.1036 -81.2036 56° Northeast 103 119 3,500 -250 Descending Miami Center
Fri 02:52:51 PM 27.1189 -81.1808 53° Northeast 108 124 3,400 -100 Descending Miami Center
Fri 02:53:51 PM 27.1364 -81.1533 54° Northeast 108 124 3,300 -50 Descending Miami Center
Fri 02:54:51 PM 27.1603 -81.1264 45° Northeast 108 124 3,300 50 Level Miami Center
Fri 02:55:51 PM 27.1778 -81.1014 52° Northeast 108 124 3,400 150 Climbing Miami Center
Fri 02:56:51 PM 27.1992 -81.0811 40° Northeast 98 113 3,600 50 Climbing Miami Center
Fri 02:57:51 PM 27.2206 -81.0608 40° Northeast 98 113 3,500 -100 Descending Miami Center
Fri 02:57:51 PM 27.2206 -81.0608 40° Northeast 98 113 3,500 -300 Level Miami Center
Fri 02:58:51 PM 27.2444 -81.0361 43° Northeast 98 113 3,200 -300 Descending Miami Center
Fri 02:58:51 PM 27.2444 -81.0361 43° Northeast 98 113 3,200 -200 Level Miami Center
Fri 02:59:51 PM 27.2700 -81.0136 38° Northeast 105 121 3,000 -200 Descending Miami Center
Fri 02:59:51 PM 27.2700 -81.0136 38° Northeast 105 121 3,000  Level Miami Center
Fri 03:00:51 PM 27.2956 -80.9958 32° Northeast 105 121 3,000  Level Miami Center
Fri 03:00:51 PM 27.2956 -80.9958 32° Northeast 105 121 3,000 -100 Level Miami Center
Fri 03:01:51 PM 27.3169 -80.9803 33° Northeast 105 121 2,900 -100 Descending Miami Center
Fri 03:01:51 PM 27.3169 -80.9803 33° Northeast 105 121 2,900 100 Level Miami Center
Fri 03:02:51 PM 27.3403 -80.9622 35° Northeast 105 121 3,000 100 Climbing Miami Center
Fri 03:02:51 PM 27.3403 -80.9622 35° Northeast 105 121 3,000  Level Miami Center
Fri 03:03:51 PM 27.3597 -80.9397 46° Northeast 105 121 3,000  Level Miami Center
Fri 03:03:51 PM 27.3597 -80.9397 46° Northeast 105 121 3,000 100 Level Miami Center
Fri 03:04:51 PM 27.3772 -80.9169 49° Northeast 99 114 3,100 100 Climbing Miami Center
Fri 03:04:51 PM 27.3772 -80.9169 49° Northeast 99 114 3,100 -100 Level Miami Center
Fri 03:05:51 PM 27.3925 -80.8894 58° Northeast 94 108 3,000 -100 Descending Miami Center
Fri 03:05:51 PM 27.3925 -80.8894 58° Northeast 94 108 3,000  Level Miami Center
Fri 03:06:51 PM 27.4100 -80.8642 52° Northeast 94 108 3,000  Level Miami Center
Fri 03:06:51 PM 27.4100 -80.8642 52° Northeast 94 108 3,000  Level Miami Center
Fri 03:07:51 PM 27.4314 -80.8439 40° Northeast 99 114 3,000  Level Miami Center
Fri 03:07:51 PM 27.4314 -80.8439 40° Northeast 99 114 3,000  Level Miami Center
Fri 03:08:51 PM 27.4467 -80.8186 56° Northeast 99 114 3,000  Level Miami Center
Fri 03:08:51 PM 27.4467 -80.8186 56° Northeast 99 114 3,000  Level Miami Center
Fri 03:09:51 PM 27.4661 -80.7936 49° Northeast 104 120 3,000  Level Miami Center
Fri 03:09:51 PM 27.4661 -80.7936 49° Northeast 104 120 3,000  Level Miami Center
Fri 03:10:51 PM 27.4939 -80.7736 33° Northeast 104 120 3,000  Level Miami Center
Fri 03:10:51 PM 27.4939 -80.7736 33° Northeast 104 120 3,000  Level Miami Center
Fri 03:11:51 PM 27.5192 -80.7650 17° North 104 120 3,000  Level Miami Center
Fri 03:11:51 PM 27.5192 -80.7650 17° North 104 120 3,000 100 Level Miami Center
Fri 03:12:51 PM 27.5483 -80.7614 North 98 113 3,100 100 Climbing Miami Center
Fri 03:12:51 PM 27.5483 -80.7614 North 98 113 3,100 -200 Level Miami Center
Fri 03:13:51 PM 27.5778 -80.7531 14° North 98 113 2,900 -200 Descending Miami Center
Fri 03:13:51 PM 27.5778 -80.7531 14° North 98 113 2,900 -100 Level Miami Center
Fri 03:14:51 PM 27.6075 -80.7422 18° North 103 119 2,800 -100 Descending Miami Center
Fri 03:14:51 PM 27.6075 -80.7422 18° North 103 119 2,800 100 Level Miami Center
Fri 03:15:51 PM 27.6286 -80.7336 20° North 103 119 2,900 100 Climbing Miami Center
Fri 03:15:51 PM 27.6286 -80.7336 20° North 103 119 2,900 -100 Level Miami Center
Fri 03:16:51 PM 27.6561 -80.7133 33° Northeast 97 112 2,800 -100 Descending Miami Center
Fri 03:16:51 PM 27.6561 -80.7133 33° Northeast 97 112 2,800 100 Level Miami Center
Fri 03:17:51 PM 27.6833 -80.7072 11° North 97 112 2,900 100 Climbing Miami Center
Fri 03:17:51 PM 27.6833 -80.7072 11° North 97 112 2,900 -162 Level Miami Center
Fri 03:20:19 PM 27.7500 -80.7000 North 114 131 2,500 -162 Descending Orlando TRACON
Fri 03:20:19 PM 27.7500 -80.7000 North 114 131 2,500 -200 Level Orlando TRACON
Fri 03:21:19 PM 27.7833 -80.6833 24° Northeast 112 129 2,300 -200 Descending Orlando TRACON
Fri 03:21:19 PM 27.7833 -80.6833 24° Northeast 112 129 2,300  Level Orlando TRACON
Fri 03:22:19 PM 27.8167 -80.6833 360° North 107 123 2,300  Level Orlando TRACON
Fri 03:22:19 PM 27.8167 -80.6833 360° North 107 123 2,300  Level Orlando TRACON
Fri 03:23:19 PM 27.8500 -80.6833 360° North 104 120 2,300  Level Orlando TRACON
Fri 03:23:19 PM 27.8500 -80.6833 360° North 104 120 2,300 111 Level Orlando TRACON
Fri 03:24:13 PM 27.8667 -80.6833 360° North 94 108 2,400 111 Climbing Orlando TRACON
Fri 03:24:13 PM 27.8667 -80.6833 360° North 94 108 2,400 100 Level Orlando TRACON
Fri 03:25:13 PM 27.9000 -80.6667 24° Northeast 94 108 2,500 100 Climbing Orlando TRACON
Fri 03:25:13 PM 27.9000 -80.6667 24° Northeast 94 108 2,500 -197 Level Orlando TRACON
Fri 03:26:14 PM 27.9167 -80.6667 360° North 119 137 2,300 -197 Descending Orlando TRACON
Fri 03:26:14 PM 27.9167 -80.6667 360° North 119 137 2,300 100 Level Orlando TRACON
Fri 03:27:14 PM 27.9500 -80.6667 360° North 104 120 2,400 100 Climbing Orlando TRACON
Fri 03:27:14 PM 27.9500 -80.6667 360° North 104 120 2,400 200 Level Orlando TRACON
Fri 03:28:14 PM 27.9833 -80.6667 360° North 104 120 2,600 200 Climbing Orlando TRACON
Fri 03:28:14 PM 27.9833 -80.6667 360° North 104 120 2,600 333 Level Orlando TRACON
Fri 03:29:08 PM 28.0000 -80.6667 360° North 99 114 2,900 333 Climbing Orlando TRACON
Fri 03:29:08 PM 28.0000 -80.6667 360° North 99 114 2,900 417 Level Orlando TRACON
Fri 03:30:20 PM 28.0333 -80.6667 360° North 85 98 3,400 417 Climbing Orlando TRACON
Fri 03:30:20 PM 28.0333 -80.6667 360° North 85 98 3,400 100 Level Orlando TRACON
Fri 03:31:20 PM 28.0667 -80.6667 360° North 100 115 3,500 100 Climbing Orlando TRACON
Fri 03:31:20 PM 28.0667 -80.6667 360° North 100 115 3,500 100 Level Orlando TRACON
Fri 03:32:20 PM 28.0833 -80.6667 360° North 105 121 3,600 100 Climbing Orlando TRACON
Fri 03:32:20 PM 28.0833 -80.6667 360° North 105 121 3,600 91 Level Orlando TRACON
Fri 03:33:26 PM 28.1167 -80.6833 336° Northwest 100 115 3,700 91 Climbing Orlando TRACON
Fri 03:33:26 PM 28.1167 -80.6833 336° Northwest 100 115 3,700 -636 Level Orlando TRACON
Fri 03:34:32 PM 28.1500 -80.6833 360° North 113 130 3,000 -636 Descending Orlando TRACON
Fri 03:34:32 PM 28.1500 -80.6833 360° North 113 130 3,000  Level Orlando TRACON
Fri 03:36:00 PM 28.1968 -80.7000 North  Level FlightAware Approximate
Fri 03:43:00 PM 28.3333 -80.6833 North  Level FlightAware Approximate
Fri 03:44:00 PM 28.3071 -80.7014 North  Level Estimated
Fri 03:45:00 PM 28.3333 -80.6833 North  Level FlightAware Approximate
Fri 03:46:00 PM 28.3071 -80.7014 North  Level Estimated
Fri 03:47:00 PM 28.3333 -80.6833 North  Level FlightAware Approximate
Fri 03:48:00 PM 28.3071 -80.7014 North  Level Estimated
Fri 03:49:00 PM 28.3333 -80.6833 North  Level FlightAware Approximate

Login

Don't have an account? Register now (free) for customized features, flight alerts, and more!